Главная страница
METAR-TAF:

METAR-TAF

Аэропорты :

Hoonah, Аляска, США

Хуна

широта: 58-07N, долгота: 135-27W, высота над уровнем моря: 0 м

Текущие метеонаблюдения

Эта сводка был подготовлена 13 минут назад, в 04:26 UTC
Ветер 3 Узел от западный-юго-западный
Температура 8°C
Влажность 87%
Давление 1020 hPa
Видимость: 16.1 км
Отдельные облака на высоте 2400 фута
Рассеянная облачность на высоте 3100 фута
Сплошная облачность на высоте 3800 фута

METAR: PAOH 270426Z AUTO 25003KT 10SM SCT024 BKN031 OVC038 08/06 A3011 RMK AO2

Время: 20:39 (04:39 UTC)


TAF: отсутствует

Метеонаблюдения и прогнозы для более 4000 аэропортов (сводки METAR и TAF).

Имеющиеся станции представлены на карте желтыми и красными точками.

Чтобы увидеть название станции, наведите на нее мышь.

Затем щелкните, чтобы увидеть метеонаблюдения и метеопрогнозы.

Управление картой: чтобы увеличить масштаб, щелкните зеленые кнопки с черным крестиком; чтобы уменьшить масштаб, щелкните зеленую кнопку с тире; для просмотра соседних карт щелкайте зеленые стрелки.


METAR-TAF: